Time;durP1;ratioP1;P1;durP2;ratioP2;P2;SDS_P1;SDS_P2;PMS_P1;PMS_P2;Temp;Humidity;BMP_temperature;BMP_pressure;BME280_temperature;BME280_humidity;BME280_pressure;Samples;Min_cycle;Max_cycle;Signal;HPM_P1;HPM_P2
2021/05/27 00:01:59;;;;;;;6.03;2.75;;;14.10;99.90;;;;;;5011628;28;20029;-79
2021/05/27 00:04:24;;;;;;;6.97;2.53;;;14.10;99.90;;;;;;5010742;28;20494;-78
2021/05/27 00:06:50;;;;;;;9.15;2.50;;;14.10;99.90;;;;;;5012281;28;20192;-78
2021/05/27 00:09:16;;;;;;;9.48;2.30;;;14.00;99.90;;;;;;5011659;28;20441;-79
2021/05/27 00:11:41;;;;;;;5.20;2.47;;;14.00;99.90;;;;;;5011981;28;20077;-78
2021/05/27 00:14:07;;;;;;;4.78;2.63;;;14.00;99.90;;;;;;5012006;28;20018;-78
2021/05/27 00:16:33;;;;;;;15.02;2.60;;;14.00;99.90;;;;;;5011898;28;20088;-78
2021/05/27 00:18:59;;;;;;;6.90;2.17;;;14.00;99.90;;;;;;5011797;28;20021;-78
2021/05/27 00:21:24;;;;;;;9.20;3.13;;;14.00;99.90;;;;;;5012173;28;20030;-78
2021/05/27 00:23:50;;;;;;;5.88;2.50;;;13.90;99.90;;;;;;5012113;28;20022;-77
2021/05/27 00:26:17;;;;;;;10.23;2.90;;;13.90;99.90;;;;;;5012340;28;20030;-78
2021/05/27 00:28:43;;;;;;;9.73;2.83;;;13.90;99.90;;;;;;4994342;28;20383;-77
2021/05/27 00:31:08;;;;;;;13.55;2.88;;;13.90;99.90;;;;;;4994615;28;20071;-81
2021/05/27 00:33:34;;;;;;;9.05;2.25;;;13.90;99.90;;;;;;5011503;28;20434;-79
2021/05/27 00:36:00;;;;;;;6.47;2.70;;;13.90;99.90;;;;;;5009881;28;20061;-78
2021/05/27 00:38:26;;;;;;;11.93;2.80;;;13.80;99.90;;;;;;5009656;28;20026;-78
2021/05/27 00:40:52;;;;;;;10.25;3.00;;;13.90;99.90;;;;;;5009486;28;20493;-77
2021/05/27 00:43:18;;;;;;;8.15;2.30;;;13.90;99.90;;;;;;5010327;28;20370;-79
2021/05/27 00:45:43;;;;;;;12.85;3.40;;;13.90;99.90;;;;;;4991930;28;20033;-78
2021/05/27 00:48:56;;;;;;;7.80;2.47;;;13.80;99.90;;;;;;5009907;28;20048;-79
2021/05/27 00:50:55;;;;;;;7.10;2.38;;;13.80;99.90;;;;;;5011623;28;20053;-79
2021/05/27 00:53:22;;;;;;;6.50;2.30;;;13.80;99.90;;;;;;5012040;28;20034;-80
2021/05/27 00:55:48;;;;;;;9.40;2.80;;;13.70;99.90;;;;;;5011847;28;20022;-82
2021/05/27 00:58:16;;;;;;;5.43;2.53;;;13.70;99.90;;;;;;5011923;28;20033;-80
2021/05/27 01:00:42;;;;;;;6.13;2.40;;;13.70;99.90;;;;;;5013211;28;20018;-80
2021/05/27 01:03:07;;;;;;;9.30;2.40;;;13.70;99.90;;;;;;5015550;28;20086;-79
2021/05/27 01:05:35;;;;;;;5.70;2.47;;;13.60;99.90;;;;;;5015530;28;20378;-79
2021/05/27 01:08:01;;;;;;;15.30;2.85;;;13.60;99.90;;;;;;4997390;28;20034;-79
2021/05/27 01:10:28;;;;;;;6.45;2.08;;;13.60;99.90;;;;;;5015455;28;20025;-79
2021/05/27 01:12:54;;;;;;;9.63;2.30;;;13.60;99.90;;;;;;5015263;28;20033;-79
2021/05/27 01:15:53;;;;;;;9.50;2.50;;;13.60;99.90;;;;;;5015414;28;20037;-79
2021/05/27 01:18:13;;;;;;;;;;;13.50;99.90;;;;;;5012149;28;20036;-78
2021/05/27 01:20:41;;;;;;;9.10;2.35;;;13.50;99.90;;;;;;5015024;28;20358;-78
2021/05/27 01:23:09;;;;;;;6.82;2.28;;;13.50;99.90;;;;;;5015420;28;20030;-79
2021/05/27 01:25:36;;;;;;;11.57;2.67;;;13.50;99.90;;;;;;5015345;28;20424;-78
2021/05/27 01:28:02;;;;;;;11.50;2.45;;;13.50;99.90;;;;;;5014984;28;20104;-78
2021/05/27 01:30:29;;;;;;;12.25;2.67;;;13.60;99.90;;;;;;5014846;28;20021;-78
2021/05/27 01:32:54;;;;;;;9.75;1.98;;;13.60;99.90;;;;;;5014337;28;20524;-77
2021/05/27 01:35:23;;;;;;;6.47;2.92;;;13.60;99.90;;;;;;5014441;28;20160;-80
2021/05/27 01:37:49;;;;;;;8.40;2.30;;;13.70;99.90;;;;;;5014839;28;20030;-78
2021/05/27 01:40:23;;;;;;;11.57;2.50;;;13.70;99.90;;;;;;5014414;28;20410;-80
2021/05/27 01:42:49;;;;;;;13.68;2.83;;;13.70;99.90;;;;;;5014655;28;20046;-77
2021/05/27 01:45:16;;;;;;;6.75;2.38;;;13.70;99.90;;;;;;4996787;28;20399;-79
2021/05/27 01:47:42;;;;;;;12.80;2.50;;;13.70;99.90;;;;;;5013913;28;20026;-77
2021/05/27 01:50:10;;;;;;;10.05;2.05;;;13.60;99.90;;;;;;5013834;28;20025;-78
2021/05/27 01:52:36;;;;;;;8.82;3.05;;;13.60;99.90;;;;;;5014152;28;20036;-78
2021/05/27 01:55:03;;;;;;;10.07;2.63;;;13.60;99.90;;;;;;5013287;28;20030;-78
2021/05/27 01:57:29;;;;;;;8.32;2.60;;;13.60;99.90;;;;;;5012151;28;20034;-79
2021/05/27 01:59:55;;;;;;;4.53;2.33;;;13.60;99.90;;;;;;5012247;28;20021;-78
2021/05/27 02:02:21;;;;;;;4.07;1.90;;;13.50;99.90;;;;;;4994429;28;20029;-77
2021/05/27 02:04:46;;;;;;;7.05;2.38;;;13.50;99.90;;;;;;5012051;28;20101;-77
2021/05/27 02:07:14;;;;;;;7.05;2.15;;;13.50;99.90;;;;;;5011893;28;20026;-79
2021/05/27 02:09:40;;;;;;;19.35;2.47;;;13.50;99.90;;;;;;5011553;28;20028;-79
2021/05/27 02:12:06;;;;;;;18.92;2.35;;;13.50;99.90;;;;;;5013384;28;20496;-78
2021/05/27 02:14:32;;;;;;;6.75;2.15;;;13.50;99.90;;;;;;4996269;28;20026;-78
2021/05/27 02:16:58;;;;;;;7.07;2.25;;;13.40;99.90;;;;;;5008999;28;20034;-79
2021/05/27 02:19:26;;;;;;;6.03;2.20;;;13.40;99.90;;;;;;5008161;28;20363;-77
2021/05/27 02:21:52;;;;;;;10.35;2.35;;;13.50;99.90;;;;;;5005186;28;20029;-77
2021/05/27 02:24:18;;;;;;;12.20;2.42;;;13.40;99.90;;;;;;5023074;28;20076;-78
2021/05/27 02:26:44;;;;;;;4.95;2.60;;;13.40;99.90;;;;;;5004054;28;20026;-78
2021/05/27 02:29:10;;;;;;;7.32;2.28;;;13.40;99.90;;;;;;5020403;28;20018;-78
2021/05/27 02:31:37;;;;;;;12.15;2.45;;;13.40;99.90;;;;;;5019507;28;20044;-79
2021/05/27 02:34:04;;;;;;;4.07;2.08;;;13.30;99.90;;;;;;5038649;28;20125;-79
2021/05/27 02:36:30;;;;;;;7.18;2.35;;;13.30;99.90;;;;;;5028358;28;20037;-78
2021/05/27 02:38:56;;;;;;;7.75;2.60;;;13.30;99.90;;;;;;5022469;28;20014;-80
2021/05/27 02:41:23;;;;;;;5.68;2.15;;;13.30;99.90;;;;;;5030791;28;20448;-77
2021/05/27 02:43:49;;;;;;;10.85;2.63;;;13.20;99.90;;;;;;5024214;28;20026;-77
2021/05/27 02:46:16;;;;;;;10.27;2.33;;;13.20;99.90;;;;;;5020437;28;20022;-79
2021/05/27 02:48:42;;;;;;;9.75;2.38;;;13.10;99.90;;;;;;5035768;28;20055;-80
2021/05/27 02:51:08;;;;;;;5.38;2.42;;;13.10;99.90;;;;;;5035456;28;20026;-81
2021/05/27 02:53:34;;;;;;;7.97;2.83;;;13.10;99.90;;;;;;5002634;28;20026;-79
2021/05/27 02:56:07;;;;;;;4.13;2.33;;;13.10;99.90;;;;;;5019819;28;20394;-79
2021/05/27 02:58:33;;;;;;;10.52;2.50;;;13.10;99.90;;;;;;5020707;28;20540;-79
2021/05/27 03:00:59;;;;;;;7.50;2.42;;;13.20;99.90;;;;;;5020382;28;20029;-80
2021/05/27 03:03:25;;;;;;;5.72;3.03;;;13.20;99.90;;;;;;5019150;28;20083;-79
2021/05/27 03:05:51;;;;;;;9.65;2.42;;;13.20;99.90;;;;;;5017871;28;20025;-78
2021/05/27 03:08:17;;;;;;;6.10;2.60;;;13.20;99.90;;;;;;5038097;28;20028;-78
2021/05/27 03:10:43;;;;;;;5.70;2.20;;;13.30;99.90;;;;;;5039327;28;20017;-79
2021/05/27 03:13:09;;;;;;;11.98;2.50;;;13.30;99.90;;;;;;5038759;28;20030;-76
2021/05/27 03:15:36;;;;;;;6.63;2.95;;;13.30;99.90;;;;;;5004049;28;20032;-79
2021/05/27 03:18:04;;;;;;;4.45;2.22;;;13.30;99.90;;;;;;5014929;28;20038;-78
2021/05/27 03:20:30;;;;;;;11.25;2.17;;;13.20;99.90;;;;;;5012491;28;20014;-78
2021/05/27 03:22:56;;;;;;;5.03;1.90;;;13.30;99.90;;;;;;5011231;28;20076;-81
2021/05/27 03:25:22;;;;;;;11.00;2.40;;;13.20;99.90;;;;;;4998750;28;20026;-81
2021/05/27 03:27:48;;;;;;;9.07;2.35;;;13.20;99.90;;;;;;4994980;28;20394;-79
2021/05/27 03:30:15;;;;;;;10.57;2.60;;;13.30;99.90;;;;;;5011651;28;20030;-79
2021/05/27 03:32:40;;;;;;;11.52;2.85;;;13.30;99.90;;;;;;4994615;28;20737;-78
2021/05/27 03:35:08;;;;;;;9.07;2.40;;;13.30;99.90;;;;;;5012259;28;20022;-80
2021/05/27 03:37:33;;;;;;;14.25;2.30;;;13.30;99.90;;;;;;5012397;28;20425;-80
2021/05/27 03:40:15;;;;;;;10.60;2.50;;;13.30;99.90;;;;;;5011373;28;20022;-79
2021/05/27 03:42:55;;;;;;;5.95;2.70;;;13.30;99.90;;;;;;5011845;28;20024;-81
2021/05/27 03:45:29;;;;;;;5.95;1.92;;;13.40;99.90;;;;;;5011212;28;20053;-79
2021/05/27 03:47:55;;;;;;;10.18;2.80;;;13.40;99.90;;;;;;5011878;28;20520;-80
2021/05/27 03:50:23;;;;;;;8.05;2.65;;;13.50;99.90;;;;;;5012241;28;20045;-79
2021/05/27 03:52:49;;;;;;;4.75;2.00;;;13.50;99.90;;;;;;5012270;28;20501;-81
2021/05/27 03:55:17;;;;;;;5.50;2.38;;;13.50;99.90;;;;;;5011887;28;20092;-82
2021/05/27 03:57:44;;;;;;;6.93;2.83;;;13.50;99.90;;;;;;5012003;28;20029;-80
2021/05/27 04:02:59;;;;;;;5.90;2.30;;;13.60;99.90;;;;;;5012415;28;20099;-78
2021/05/27 04:08:09;;;;;;;7.45;2.33;;;13.70;99.90;;;;;;5012094;28;20037;-78
2021/05/27 04:10:35;;;;;;;4.90;2.15;;;13.80;99.90;;;;;;5012031;28;20030;-82
2021/05/27 04:13:01;;;;;;;9.05;2.42;;;13.80;99.90;;;;;;5011268;28;20041;-80
2021/05/27 04:15:29;;;;;;;8.25;2.83;;;13.90;99.90;;;;;;5011839;28;20422;-79
2021/05/27 04:18:10;;;;;;;5.85;2.95;;;13.90;99.90;;;;;;5011871;28;20026;-82
2021/05/27 04:20:48;;;;;;;16.40;2.80;;;14.00;99.90;;;;;;5012186;28;20018;-79
2021/05/27 04:23:33;;;;;;;6.85;2.50;;;14.20;99.90;;;;;;5010633;28;20044;-79
2021/05/27 04:26:00;;;;;;;6.93;3.30;;;14.40;99.90;;;;;;4986130;28;20030;-78
2021/05/27 04:28:27;;;;;;;5.10;2.45;;;14.70;99.90;;;;;;4995430;28;20041;-78
2021/05/27 04:31:11;;;;;;;12.23;2.47;;;14.90;99.90;;;;;;5010574;28;20037;-80
2021/05/27 04:33:44;;;;;;;8.05;2.35;;;14.90;99.90;;;;;;5011375;28;20061;-78
2021/05/27 04:36:10;;;;;;;8.82;2.70;;;15.20;99.90;;;;;;5015007;28;20026;-82
2021/05/27 04:38:37;;;;;;;5.80;2.55;;;15.30;99.90;;;;;;5015196;28;20108;-79
2021/05/27 04:41:04;;;;;;;14.05;2.80;;;15.40;99.90;;;;;;5015197;28;20033;-78
2021/05/27 04:43:29;;;;;;;6.35;2.60;;;15.50;99.90;;;;;;5023958;28;20386;-77
2021/05/27 04:45:55;;;;;;;11.90;2.47;;;15.70;99.90;;;;;;5015217;28;20125;-80
2021/05/27 04:48:21;;;;;;;15.75;3.28;;;16.10;99.90;;;;;;5015154;28;20069;-78
2021/05/27 04:50:49;;;;;;;14.85;2.67;;;16.60;99.90;;;;;;5022060;28;20037;-80
2021/05/27 04:53:16;;;;;;;7.43;2.85;;;17.00;99.90;;;;;;5006613;28;20049;-81
2021/05/27 04:55:42;;;;;;;6.97;2.83;;;17.40;99.90;;;;;;5015045;28;20061;-80
2021/05/27 04:58:08;;;;;;;14.13;3.00;;;18.20;99.90;;;;;;5015101;28;20025;-78
2021/05/27 05:00:34;;;;;;;13.60;2.97;;;19.10;99.90;;;;;;5014965;28;20026;-78
2021/05/27 05:03:00;;;;;;;12.13;2.28;;;19.70;99.90;;;;;;5001276;28;20401;-78
2021/05/27 05:05:27;;;;;;;10.45;2.50;;;20.40;99.90;;;;;;5014463;28;20032;-78
2021/05/27 05:07:54;;;;;;;5.35;2.35;;;21.30;99.90;;;;;;5015069;28;20541;-77
2021/05/27 05:10:21;;;;;;;9.02;2.50;;;22.40;99.90;;;;;;5014773;28;20038;-79
2021/05/27 05:12:51;;;;;;;9.90;2.42;;;23.30;99.90;;;;;;5014978;28;20025;-80
2021/05/27 05:15:18;;;;;;;12.68;2.88;;;24.20;99.90;;;;;;5014860;28;20517;-79
2021/05/27 05:17:47;;;;;;;10.63;2.55;;;25.20;99.90;;;;;;5015218;28;20121;-81
2021/05/27 05:20:13;;;;;;;9.80;2.38;;;26.40;99.90;;;;;;5014760;28;20014;-81
2021/05/27 05:22:39;;;;;;;6.60;2.22;;;27.10;99.90;;;;;;5014109;28;20390;-80
2021/05/27 05:25:06;;;;;;;8.05;2.70;;;27.50;99.90;;;;;;5014747;28;20113;-79
2021/05/27 05:27:32;;;;;;;9.93;2.15;;;28.20;99.50;;;;;;5014487;28;20026;-80
2021/05/27 05:29:57;;;;;;;24.13;2.95;;;28.80;97.50;;;;;;5012500;28;20080;-79
2021/05/27 05:32:23;;;;;;;10.35;2.90;;;29.30;96.60;;;;;;5012651;28;20022;-80
2021/05/27 05:34:50;;;;;;;9.88;2.38;;;29.70;95.50;;;;;;5014733;28;20061;-80
2021/05/27 05:37:16;;;;;;;12.20;2.42;;;29.80;94.60;;;;;;5018444;28;20041;-80
2021/05/27 05:39:42;;;;;;;10.55;2.35;;;30.20;93.80;;;;;;5018046;28;20026;-80
2021/05/27 05:42:08;;;;;;;6.20;2.33;;;30.50;92.60;;;;;;5017405;28;20026;-80
2021/05/27 05:44:34;;;;;;;5.53;1.92;;;31.30;91.40;;;;;;5014468;28;20742;-81
2021/05/27 05:46:59;;;;;;;9.80;1.95;;;31.90;90.30;;;;;;5013554;28;20022;-80
2021/05/27 05:49:25;;;;;;;11.63;1.48;;;32.40;88.60;;;;;;5013667;28;20049;-81
2021/05/27 05:51:51;;;;;;;8.98;2.30;;;32.90;87.90;;;;;;5018885;28;20033;-80
2021/05/27 05:54:16;;;;;;;11.80;2.38;;;33.70;85.30;;;;;;5016770;28;20116;-81
2021/05/27 05:56:42;;;;;;;17.52;3.00;;;33.70;84.00;;;;;;5013299;28;20049;-80
2021/05/27 05:59:08;;;;;;;13.85;2.33;;;34.10;81.90;;;;;;5013564;28;20013;-80
2021/05/27 06:01:33;;;;;;;8.93;2.65;;;34.50;79.90;;;;;;5013971;28;20058;-80
2021/05/27 06:03:59;;;;;;;12.13;2.33;;;34.50;79.40;;;;;;5013866;28;20033;-80
2021/05/27 06:06:25;;;;;;;6.28;1.92;;;34.70;78.00;;;;;;5013377;28;20022;-80
2021/05/27 06:08:51;;;;;;;9.85;2.08;;;35.00;76.70;;;;;;5014030;28;20034;-80
2021/05/27 06:11:18;;;;;;;10.40;2.33;;;35.50;75.80;;;;;;5013995;28;20018;-81
2021/05/27 06:13:44;;;;;;;16.92;2.53;;;36.10;74.60;;;;;;5014399;28;20056;-81
2021/05/27 06:16:10;;;;;;;11.43;2.70;;;36.40;73.30;;;;;;5014030;28;20490;-80
2021/05/27 06:18:35;;;;;;;13.93;2.33;;;36.10;73.10;;;;;;5013914;28;20018;-80
2021/05/27 06:21:01;;;;;;;4.65;1.80;;;36.20;72.80;;;;;;5014058;28;20517;-79
2021/05/27 06:23:27;;;;;;;6.35;1.85;;;36.50;71.00;;;;;;5013596;28;20032;-81
2021/05/27 06:25:53;;;;;;;8.70;1.83;;;36.60;70.00;;;;;;5013939;28;20084;-79
2021/05/27 06:28:19;;;;;;;5.50;2.10;;;36.70;69.10;;;;;;5017879;28;20029;-78
2021/05/27 06:30:44;;;;;;;18.02;2.47;;;37.10;68.60;;;;;;5018987;28;20096;-79
2021/05/27 06:33:10;;;;;;;9.95;1.60;;;37.40;66.80;;;;;;5003402;28;20021;-78
2021/05/27 06:35:36;;;;;;;14.25;1.73;;;37.90;65.50;;;;;;5012836;28;20026;-80
2021/05/27 06:38:03;;;;;;;12.75;2.30;;;38.10;64.40;;;;;;5013316;28;20033;-79
2021/05/27 06:40:29;;;;;;;11.50;1.83;;;38.20;63.60;;;;;;5013885;28;20096;-79
2021/05/27 06:42:55;;;;;;;18.08;2.90;;;38.20;63.80;;;;;;5013516;28;20101;-79
2021/05/27 06:45:23;;;;;;;8.63;2.00;;;38.40;62.50;;;;;;5013081;28;20121;-79
2021/05/27 06:47:49;;;;;;;3.78;1.38;;;38.60;61.60;;;;;;5012519;28;20069;-79
2021/05/27 06:50:32;;;;;;;15.80;1.85;;;38.40;60.80;;;;;;5012504;28;20093;-79
2021/05/27 06:53:02;;;;;;;6.22;1.73;;;38.30;60.70;;;;;;5013213;28;20098;-77
2021/05/27 06:55:28;;;;;;;10.38;1.95;;;37.60;60.40;;;;;;5012831;28;20014;-78
2021/05/27 06:57:54;;;;;;;11.63;1.88;;;36.70;63.00;;;;;;5012888;28;20110;-78
2021/05/27 07:00:20;;;;;;;8.15;2.22;;;35.40;64.40;;;;;;5012950;28;20060;-78
2021/05/27 07:02:47;;;;;;;8.23;1.90;;;34.50;66.10;;;;;;5013399;28;20033;-78
2021/05/27 07:05:13;;;;;;;4.80;1.77;;;33.30;65.50;;;;;;5013412;28;20104;-78
2021/05/27 07:07:40;;;;;;;9.10;2.53;;;32.30;67.80;;;;;;5013087;28;20057;-78
2021/05/27 07:10:06;;;;;;;18.90;2.80;;;31.30;71.40;;;;;;5013102;28;20438;-77
2021/05/27 07:12:33;;;;;;;19.50;3.25;;;30.60;73.70;;;;;;5003914;28;20099;-77
2021/05/27 07:14:59;;;;;;;12.75;2.65;;;30.20;74.40;;;;;;5009020;28;20028;-78
2021/05/27 07:17:25;;;;;;;20.70;4.10;;;29.70;75.60;;;;;;5023470;28;20072;-78
2021/05/27 07:19:52;;;;;;;14.02;4.25;;;29.20;76.30;;;;;;5020678;28;20386;-79
2021/05/27 07:22:18;;;;;;;23.02;3.83;;;28.80;77.00;;;;;;5023751;28;20026;-79
2021/05/27 07:24:45;;;;;;;23.45;3.35;;;28.40;76.50;;;;;;5024916;28;20029;-79
2021/05/27 07:27:11;;;;;;;23.80;3.35;;;28.30;77.60;;;;;;5017873;28;20030;-79
2021/05/27 07:29:37;;;;;;;22.15;2.92;;;28.30;78.10;;;;;;5018157;28;20036;-79
2021/05/27 07:32:05;;;;;;;22.35;3.55;;;28.10;78.80;;;;;;5012701;28;20018;-80
2021/05/27 07:34:31;;;;;;;15.18;3.78;;;28.20;79.60;;;;;;5012664;28;20116;-80
2021/05/27 07:36:57;;;;;;;11.02;4.28;;;28.20;79.20;;;;;;5012285;28;20509;-80
2021/05/27 07:39:23;;;;;;;22.80;4.70;;;28.00;78.90;;;;;;5018991;28;20033;-79
2021/05/27 07:41:49;;;;;;;17.27;4.00;;;28.10;79.60;;;;;;5018128;28;20049;-79
2021/05/27 07:44:14;;;;;;;10.00;2.92;;;28.20;80.20;;;;;;5012585;28;20044;-79
2021/05/27 07:46:40;;;;;;;12.90;3.50;;;28.10;80.30;;;;;;5012550;28;20466;-77
2021/05/27 07:49:06;;;;;;;19.42;3.88;;;28.00;81.20;;;;;;5021203;28;20470;-78
2021/05/27 07:51:31;;;;;;;12.30;3.17;;;28.00;81.30;;;;;;5021497;28;20079;-78
2021/05/27 07:53:57;;;;;;;17.20;3.17;;;27.80;81.90;;;;;;5021061;28;20025;-78
2021/05/27 07:56:23;;;;;;;11.85;3.05;;;27.80;81.60;;;;;;5027669;28;20036;-80
2021/05/27 07:58:48;;;;;;;12.98;2.85;;;27.50;82.60;;;;;;5027814;28;20536;-79
2021/05/27 08:01:15;;;;;;;12.13;4.10;;;27.40;83.20;;;;;;5016994;28;20834;-79
2021/05/27 08:03:41;;;;;;;9.20;3.08;;;27.70;81.80;;;;;;5021498;28;20076;-80
2021/05/27 08:06:06;;;;;;;13.82;3.42;;;28.00;80.90;;;;;;5021043;28;20029;-81
2021/05/27 08:08:32;;;;;;;14.70;3.60;;;28.30;80.90;;;;;;5019340;28;20030;-80
2021/05/27 08:10:58;;;;;;;13.23;3.80;;;28.40;79.50;;;;;;5014842;28;20029;-79
2021/05/27 08:13:24;;;;;;;8.93;2.72;;;28.50;79.30;;;;;;5024842;28;20033;-80
2021/05/27 08:15:49;;;;;;;7.00;2.47;;;28.40;78.80;;;;;;5023125;28;20035;-79
2021/05/27 08:18:15;;;;;;;11.73;2.70;;;28.30;78.30;;;;;;5019762;28;20069;-79
2021/05/27 08:20:41;;;;;;;16.13;3.05;;;28.00;78.70;;;;;;5020034;28;20108;-77
2021/05/27 08:23:06;;;;;;;15.88;3.63;;;27.70;79.00;;;;;;5015264;28;20069;-77
2021/05/27 08:25:32;;;;;;;15.02;2.75;;;27.40;80.40;;;;;;4999233;28;20022;-76
2021/05/27 08:27:58;;;;;;;9.52;3.25;;;27.10;81.40;;;;;;5015131;28;20049;-81
2021/05/27 08:30:24;;;;;;;7.68;2.45;;;27.00;81.50;;;;;;4994577;28;20036;-85
2021/05/27 08:32:50;;;;;;;7.28;2.63;;;27.20;80.90;;;;;;5021052;28;20469;-83
2021/05/27 08:35:16;;;;;;;10.90;2.85;;;27.50;79.60;;;;;;5019814;28;20022;-85
2021/05/27 08:37:41;;;;;;;7.53;2.47;;;27.70;79.60;;;;;;4999428;28;20036;-81
2021/05/27 09:28:35;;;;;;;8.07;2.40;;;27.40;77.90;;;;;;5084337;28;20464;-82
2021/05/27 09:31:05;;;;;;;16.45;2.42;;;27.40;78.60;;;;;;5081621;28;20040;-86
2021/05/27 09:33:40;;;;;;;11.68;2.25;;;27.40;79.00;;;;;;5084488;28;20445;-84
2021/05/27 09:36:11;;;;;;;11.30;2.50;;;27.30;78.20;;;;;;5063681;28;20108;-85
2021/05/27 09:38:40;;;;;;;9.65;2.63;;;27.20;78.80;;;;;;5069180;28;20112;-85
2021/05/27 09:41:30;;;;;;;9.35;2.40;;;27.00;79.10;;;;;;5081091;28;20016;-86
2021/05/27 09:44:01;;;;;;;7.25;3.28;;;26.80;79.10;;;;;;5079524;28;20044;-84
2021/05/27 09:46:27;;;;;;;;;;;26.90;79.70;;;;;;5084304;28;20040;-78
2021/05/27 09:49:08;;;;;;;7.20;2.05;;;26.90;85.30;;;;;;5073194;28;19908;-77
2021/05/27 09:51:34;;;;;;;10.60;2.17;;;26.90;78.30;;;;;;5076030;28;20023;-81
2021/05/27 09:54:00;;;;;;;13.75;2.03;;;26.80;78.30;;;;;;5074500;28;20093;-89
2021/05/27 09:56:36;;;;;;;5.75;1.60;;;26.60;74.80;;;;;;5082721;28;20024;-83
2021/05/27 09:59:02;;;;;;;11.80;2.30;;;26.30;78.10;;;;;;5070961;28;20381;-84
2021/05/27 10:01:28;;;;;;;8.93;2.45;;;26.10;77.90;;;;;;5076753;28;20515;-89
2021/05/27 10:04:26;;;;;;;7.00;1.58;;;26.10;79.70;;;;;;5074740;28;20065;-88
2021/05/27 10:06:52;;;;;;;12.30;2.67;;;26.00;79.10;;;;;;5080634;28;20052;-90
2021/05/27 10:09:23;;;;;;;16.95;2.33;;;26.00;81.20;;;;;;5085815;28;20024;-91
2021/05/27 10:15:35;;;;;;;9.00;2.70;;;26.10;84.30;;;;;;5079101;28;19915;-87
2021/05/27 10:18:05;;;;;;;12.60;2.80;;;26.10;84.80;;;;;;5090438;28;20024;-92
2021/05/27 10:20:32;;;;;;;7.93;2.50;;;25.80;86.20;;;;;;5072264;28;20024;-85
2021/05/27 10:22:58;;;;;;;21.60;3.25;;;25.70;87.30;;;;;;5078694;28;20103;-92
2021/05/27 10:25:26;;;;;;;8.38;2.20;;;25.80;87.30;;;;;;5081402;28;20029;-87
2021/05/27 10:27:54;;;;;;;10.32;3.30;;;25.90;87.20;;;;;;5077021;28;20059;-91
2021/05/27 10:30:21;;;;;;;12.40;2.58;;;26.00;87.00;;;;;;5083262;28;20522;-84
2021/05/27 10:32:55;;;;;;;10.40;2.35;;;26.10;86.20;;;;;;5077880;28;20040;-88
2021/05/27 10:35:21;;;;;;;13.75;2.35;;;26.10;86.20;;;;;;5062817;28;20021;-86
2021/05/27 10:37:57;;;;;;;12.60;2.22;;;26.10;83.30;;;;;;5072265;28;20036;-91
2021/05/27 10:40:22;;;;;;;10.00;2.20;;;26.00;83.40;;;;;;5060762;28;20120;-86
2021/05/27 10:43:13;;;;;;;6.75;2.00;;;25.90;82.40;;;;;;5066681;28;20079;-84
2021/05/27 10:45:57;;;;;;;5.68;1.58;;;25.90;80.10;;;;;;5059757;28;20025;-90
2021/05/27 10:48:51;;;;;;;11.38;2.17;;;25.80;80.00;;;;;;5057301;28;20033;-90
2021/05/27 10:51:49;;;;;;;6.93;1.63;;;25.80;80.60;;;;;;5063962;28;20032;-85
2021/05/27 10:54:46;;;;;;;5.30;2.17;;;26.10;82.30;;;;;;5063155;28;20017;-88
2021/05/27 10:57:40;;;;;;;13.68;2.35;;;26.10;82.00;;;;;;5059269;28;20096;-90
2021/05/27 11:00:49;;;;;;;9.38;1.85;;;26.00;81.90;;;;;;5062687;22;20050;-88
2021/05/27 11:10:30;;;;;;;14.02;2.72;;;25.50;87.20;;;;;;5027014;28;20062;-91
2021/05/27 11:13:08;;;;;;;10.05;2.55;;;25.40;89.30;;;;;;5030427;28;20021;-89
2021/05/27 11:16:03;;;;;;;6.15;2.15;;;25.40;90.40;;;;;;5008565;28;20053;-89
2021/05/27 11:18:37;;;;;;;10.55;3.20;;;25.40;90.30;;;;;;5030869;28;20018;-88
2021/05/27 11:21:35;;;;;;;8.27;2.72;;;25.30;90.30;;;;;;5016498;28;20532;-91
2021/05/27 11:27:35;;;;;;;7.30;2.25;;;25.30;89.20;;;;;;5046824;28;20098;-90
2021/05/27 11:30:41;;;;;;;5.07;1.73;;;25.30;87.30;;;;;;5055447;28;20029;-85
2021/05/27 11:33:30;;;;;;;7.38;2.13;;;25.40;83.70;;;;;;5036390;28;20021;-86
2021/05/27 11:35:58;;;;;;;9.40;2.67;;;25.40;86.40;;;;;;5020639;28;20041;-87
2021/05/27 11:38:36;;;;;;;9.35;2.20;;;25.30;85.30;;;;;;5043278;28;20479;-83
2021/05/27 11:41:07;;;;;;;12.02;2.00;;;25.10;86.40;;;;;;5036551;28;20469;-87
2021/05/27 11:43:37;;;;;;;6.85;2.15;;;24.90;86.20;;;;;;5035159;28;20021;-85
2021/05/27 11:46:11;;;;;;;9.25;3.50;;;24.70;86.60;;;;;;5009681;28;20039;-84
2021/05/27 11:48:39;;;;;;;5.78;2.20;;;24.50;87.40;;;;;;5025187;28;20065;-85
2021/05/27 11:51:16;;;;;;;9.88;2.78;;;24.50;89.00;;;;;;5010986;28;20017;-85
2021/05/27 11:53:57;;;;;;;9.68;2.22;;;24.50;90.00;;;;;;5029036;28;20021;-84
2021/05/27 11:56:37;;;;;;;18.17;2.97;;;24.50;90.50;;;;;;5031158;28;20021;-83
2021/05/27 11:59:09;;;;;;;14.90;3.28;;;24.50;91.80;;;;;;5007816;28;20018;-86
2021/05/27 12:01:38;;;;;;;16.23;3.35;;;24.50;92.70;;;;;;5037141;28;20025;-83
2021/05/27 12:04:13;;;;;;;14.98;2.97;;;24.40;93.20;;;;;;5021016;28;20030;-84
2021/05/27 12:07:06;;;;;;;5.40;2.58;;;24.40;94.00;;;;;;5017011;28;20038;-82
2021/05/27 12:09:32;;;;;;;8.15;2.75;;;24.30;94.70;;;;;;5015327;28;20097;-84
2021/05/27 12:12:11;;;;;;;11.20;3.85;;;24.30;94.30;;;;;;5025471;28;20122;-84
2021/05/27 12:14:42;;;;;;;16.33;4.03;;;24.20;94.50;;;;;;5004671;28;20148;-83
2021/05/27 12:17:22;;;;;;;18.15;3.45;;;24.20;94.80;;;;;;4998075;28;20017;-84
2021/05/27 12:19:54;;;;;;;12.05;3.30;;;24.30;94.80;;;;;;5008646;28;20026;-86
2021/05/27 12:22:21;;;;;;;9.20;3.05;;;24.20;94.60;;;;;;5008655;28;20022;-84
2021/05/27 12:25:03;;;;;;;14.52;2.70;;;24.20;94.30;;;;;;5018214;28;20026;-85
2021/05/27 12:27:41;;;;;;;15.40;2.95;;;24.10;95.10;;;;;;5025554;28;20428;-84
2021/05/27 12:30:08;;;;;;;8.77;2.70;;;24.00;95.00;;;;;;5012282;28;20441;-85
2021/05/27 12:32:38;;;;;;;10.27;2.65;;;24.00;95.50;;;;;;4996392;28;20024;-81
2021/05/27 12:35:05;;;;;;;7.38;2.53;;;23.90;95.50;;;;;;5018129;28;20013;-81
2021/05/27 12:37:39;;;;;;;8.00;2.60;;;23.90;95.80;;;;;;5018906;28;20109;-89
2021/05/27 12:40:07;;;;;;;16.80;3.35;;;23.80;95.30;;;;;;5035074;28;20021;-86
2021/05/27 12:42:37;;;;;;;19.45;2.33;;;23.80;95.10;;;;;;5034702;28;20040;-84
2021/05/27 12:45:25;;;;;;;7.72;2.65;;;23.60;94.80;;;;;;5028965;28;20470;-86
2021/05/27 12:48:09;;;;;;;5.18;2.55;;;23.50;94.20;;;;;;5021852;28;20030;-86
2021/05/27 12:50:37;;;;;;;8.77;2.22;;;23.40;94.90;;;;;;5011424;28;20080;-86
2021/05/27 12:53:04;;;;;;;10.48;2.30;;;23.40;96.00;;;;;;5038090;28;20052;-86
2021/05/27 12:55:33;;;;;;;6.70;2.50;;;23.40;95.70;;;;;;5015432;28;20385;-87
2021/05/27 12:58:00;;;;;;;10.18;2.17;;;23.60;96.10;;;;;;5010060;28;20030;-87
2021/05/27 13:00:52;;;;;;;9.02;2.63;;;23.70;95.30;;;;;;5011773;28;20030;-87
2021/05/27 13:03:18;;;;;;;15.07;2.38;;;23.80;95.80;;;;;;5021786;28;20486;-88
2021/05/27 13:13:20;;;;;;;5.65;2.03;;;23.80;96.00;;;;;;5016934;28;20406;-88
2021/05/27 13:15:49;;;;;;;13.82;2.58;;;23.80;95.70;;;;;;5024611;28;20691;-81
2021/05/27 13:18:16;;;;;;;20.85;2.75;;;23.70;95.70;;;;;;5031315;28;20025;-82
2021/05/27 13:20:54;;;;;;;11.88;2.38;;;23.40;95.80;;;;;;5049051;28;20064;-79
2021/05/27 13:23:32;;;;;;;7.40;2.63;;;23.40;97.20;;;;;;5048054;28;20063;-81
2021/05/27 13:26:15;;;;;;;17.55;2.78;;;23.40;96.80;;;;;;5047619;28;20150;-77
2021/05/27 13:28:42;;;;;;;16.08;2.75;;;23.40;97.60;;;;;;5047958;28;20029;-77
2021/05/27 13:31:10;;;;;;;10.32;2.30;;;23.40;97.80;;;;;;5048791;28;20040;-79
2021/05/27 13:33:36;;;;;;;5.90;2.40;;;23.50;97.90;;;;;;5054737;28;20021;-80
2021/05/27 13:36:03;;;;;;;19.52;2.47;;;23.60;97.60;;;;;;5047669;28;20079;-80
2021/05/27 13:38:31;;;;;;;12.77;2.85;;;23.80;97.50;;;;;;5047727;28;20017;-80
2021/05/27 13:41:00;;;;;;;12.13;3.22;;;23.90;97.10;;;;;;5049027;28;20024;-79
2021/05/27 13:43:33;;;;;;;20.70;3.55;;;24.10;96.80;;;;;;5049944;28;20425;-80
2021/05/27 13:46:07;;;;;;;6.47;2.25;;;24.30;96.60;;;;;;5052787;28;20021;-83
2021/05/27 13:48:34;;;;;;;11.27;2.30;;;24.30;98.80;;;;;;5050069;28;20493;-87
2021/05/27 13:51:01;;;;;;;12.05;2.40;;;24.20;96.80;;;;;;5056305;28;20473;-84
2021/05/27 13:53:27;;;;;;;21.48;3.58;;;24.20;97.40;;;;;;5031037;28;20021;-82
2021/05/27 13:55:57;;;;;;;9.50;2.60;;;24.20;96.30;;;;;;5033456;28;20044;-81
2021/05/27 13:58:24;;;;;;;9.13;2.58;;;24.10;96.30;;;;;;5047706;28;20025;-82
2021/05/27 14:00:50;;;;;;;10.95;3.15;;;24.10;96.30;;;;;;5034433;28;20032;-83
2021/05/27 14:03:16;;;;;;;13.77;2.30;;;24.30;96.40;;;;;;5050926;28;20124;-81
2021/05/27 14:05:42;;;;;;;9.80;2.90;;;24.30;96.40;;;;;;5049055;28;20220;-81
2021/05/27 14:08:08;;;;;;;11.00;2.47;;;24.30;96.00;;;;;;5048998;28;20060;-80
2021/05/27 14:10:35;;;;;;;14.65;2.80;;;24.50;96.10;;;;;;5048208;28;20084;-80